sensor_id;sensor_type;location;lat;lon;timestamp;pressure;altitude;pressure_sealevel;temperature;humidity
43683;BME280;29285;52.128;21.060;2024-03-08T00:02:26;101240.38;;;1.98;100.00
43683;BME280;29285;52.128;21.060;2024-03-08T00:07:27;101234.54;;;1.93;100.00
43683;BME280;29285;52.128;21.060;2024-03-08T00:12:28;101232.52;;;1.88;100.00
43683;BME280;29285;52.128;21.060;2024-03-08T00:17:29;101235.67;;;1.85;100.00
43683;BME280;29285;52.128;21.060;2024-03-08T00:22:32;101229.46;;;1.89;100.00
43683;BME280;29285;52.128;21.060;2024-03-08T00:27:33;101225.78;;;1.87;100.00
43683;BME280;29285;52.128;21.060;2024-03-08T00:32:34;101226.27;;;1.86;100.00
43683;BME280;29285;52.128;21.060;2024-03-08T00:37:37;101225.19;;;1.90;100.00
43683;BME280;29285;52.128;21.060;2024-03-08T00:42:38;101225.02;;;1.94;100.00
43683;BME280;29285;52.128;21.060;2024-03-08T00:47:40;101223.33;;;1.95;100.00
43683;BME280;29285;52.128;21.060;2024-03-08T00:52:43;101221.66;;;1.96;100.00
43683;BME280;29285;52.128;21.060;2024-03-08T00:57:44;101221.31;;;1.96;100.00
43683;BME280;29285;52.128;21.060;2024-03-08T01:02:45;101217.28;;;1.94;100.00
43683;BME280;29285;52.128;21.060;2024-03-08T01:07:46;101217.51;;;1.90;100.00
43683;BME280;29285;52.128;21.060;2024-03-08T01:12:47;101216.01;;;1.86;100.00
43683;BME280;29285;52.128;21.060;2024-03-08T01:17:48;101215.23;;;1.83;100.00
43683;BME280;29285;52.128;21.060;2024-03-08T01:22:49;101209.17;;;1.81;100.00
43683;BME280;29285;52.128;21.060;2024-03-08T01:27:50;101206.04;;;1.80;100.00
43683;BME280;29285;52.128;21.060;2024-03-08T01:32:51;101204.14;;;1.79;100.00
43683;BME280;29285;52.128;21.060;2024-03-08T01:37:52;101203.27;;;1.79;100.00
43683;BME280;29285;52.128;21.060;2024-03-08T01:42:54;101202.33;;;1.76;100.00
43683;BME280;29285;52.128;21.060;2024-03-08T01:47:55;101202.44;;;1.75;100.00
43683;BME280;29285;52.128;21.060;2024-03-08T01:52:56;101201.66;;;1.72;100.00
43683;BME280;29285;52.128;21.060;2024-03-08T01:58:01;101198.12;;;1.68;100.00
43683;BME280;29285;52.128;21.060;2024-03-08T02:03:03;101198.19;;;1.65;100.00
43683;BME280;29285;52.128;21.060;2024-03-08T02:08:07;101192.27;;;1.62;100.00
43683;BME280;29285;52.128;21.060;2024-03-08T02:13:09;101183.63;;;1.60;100.00
43683;BME280;29285;52.128;21.060;2024-03-08T02:18:10;101177.63;;;1.54;100.00
43683;BME280;29285;52.128;21.060;2024-03-08T02:23:11;101175.34;;;1.52;100.00
43683;BME280;29285;52.128;21.060;2024-03-08T02:28:12;101173.23;;;1.51;100.00
43683;BME280;29285;52.128;21.060;2024-03-08T02:33:15;101172.44;;;1.47;100.00
43683;BME280;29285;52.128;21.060;2024-03-08T02:38:19;101174.71;;;1.43;100.00
43683;BME280;29285;52.128;21.060;2024-03-08T02:43:21;101170.77;;;1.43;100.00
43683;BME280;29285;52.128;21.060;2024-03-08T02:48:23;101170.98;;;1.39;100.00
43683;BME280;29285;52.128;21.060;2024-03-08T02:53:24;101168.70;;;1.38;100.00
43683;BME280;29285;52.128;21.060;2024-03-08T02:58:26;101166.39;;;1.36;100.00
43683;BME280;29285;52.128;21.060;2024-03-08T03:03:27;101160.33;;;1.33;100.00
43683;BME280;29285;52.128;21.060;2024-03-08T03:08:28;101164.92;;;1.32;100.00
43683;BME280;29285;52.128;21.060;2024-03-08T03:13:29;101164.31;;;1.30;100.00
43683;BME280;29285;52.128;21.060;2024-03-08T03:18:30;101164.60;;;1.28;100.00
43683;BME280;29285;52.128;21.060;2024-03-08T03:23:33;101164.89;;;1.27;100.00
43683;BME280;29285;52.128;21.060;2024-03-08T03:28:35;101163.83;;;1.25;100.00
43683;BME280;29285;52.128;21.060;2024-03-08T03:33:40;101162.85;;;1.22;100.00
43683;BME280;29285;52.128;21.060;2024-03-08T03:38:41;101162.17;;;1.17;100.00
43683;BME280;29285;52.128;21.060;2024-03-08T03:43:42;101161.19;;;1.14;100.00
43683;BME280;29285;52.128;21.060;2024-03-08T03:48:43;101158.27;;;1.08;100.00
43683;BME280;29285;52.128;21.060;2024-03-08T03:53:45;101154.05;;;1.06;100.00
43683;BME280;29285;52.128;21.060;2024-03-08T03:58:46;101149.31;;;1.02;100.00
43683;BME280;29285;52.128;21.060;2024-03-08T04:03:47;101146.20;;;1.01;100.00
43683;BME280;29285;52.128;21.060;2024-03-08T04:08:48;101147.48;;;0.99;100.00
43683;BME280;29285;52.128;21.060;2024-03-08T04:13:49;101142.77;;;0.96;100.00
43683;BME280;29285;52.128;21.060;2024-03-08T04:18:50;101142.20;;;0.94;100.00
43683;BME280;29285;52.128;21.060;2024-03-08T04:23:51;101139.08;;;0.93;100.00
43683;BME280;29285;52.128;21.060;2024-03-08T04:28:52;101140.86;;;0.90;100.00
43683;BME280;29285;52.128;21.060;2024-03-08T04:33:53;101139.63;;;0.89;100.00
43683;BME280;29285;52.128;21.060;2024-03-08T04:38:54;101139.48;;;0.90;100.00
43683;BME280;29285;52.128;21.060;2024-03-08T04:43:56;101138.27;;;0.89;100.00
43683;BME280;29285;52.128;21.060;2024-03-08T04:48:58;101142.23;;;0.90;100.00
43683;BME280;29285;52.128;21.060;2024-03-08T04:53:59;101139.78;;;0.94;100.00
43683;BME280;29285;52.128;21.060;2024-03-08T04:59:01;101136.97;;;0.91;100.00
43683;BME280;29285;52.128;21.060;2024-03-08T05:04:01;101141.11;;;0.87;100.00
43683;BME280;29285;52.128;21.060;2024-03-08T05:09:02;101142.04;;;0.85;100.00
43683;BME280;29285;52.128;21.060;2024-03-08T05:14:14;101138.48;;;0.81;100.00
43683;BME280;29285;52.128;21.060;2024-03-08T05:19:21;101140.25;;;0.78;100.00
43683;BME280;29285;52.128;21.060;2024-03-08T05:24:22;101142.75;;;0.76;100.00
43683;BME280;29285;52.128;21.060;2024-03-08T05:29:23;101143.23;;;0.75;100.00
43683;BME280;29285;52.128;21.060;2024-03-08T05:34:24;101141.67;;;0.75;100.00
43683;BME280;29285;52.128;21.060;2024-03-08T05:39:27;101141.17;;;0.75;100.00
43683;BME280;29285;52.128;21.060;2024-03-08T05:44:28;101135.19;;;0.80;100.00
43683;BME280;29285;52.128;21.060;2024-03-08T05:49:32;101136.42;;;0.86;100.00
43683;BME280;29285;52.128;21.060;2024-03-08T05:54:35;101133.25;;;0.97;100.00
43683;BME280;29285;52.128;21.060;2024-03-08T05:59:36;101132.24;;;1.08;100.00
43683;BME280;29285;52.128;21.060;2024-03-08T06:04:37;101132.96;;;1.13;100.00
43683;BME280;29285;52.128;21.060;2024-03-08T06:09:39;101139.65;;;1.19;100.00
43683;BME280;29285;52.128;21.060;2024-03-08T06:14:40;101142.38;;;1.28;100.00
43683;BME280;29285;52.128;21.060;2024-03-08T06:19:41;101139.21;;;1.36;100.00
43683;BME280;29285;52.128;21.060;2024-03-08T06:24:43;101145.00;;;1.50;100.00
43683;BME280;29285;52.128;21.060;2024-03-08T06:29:44;101147.80;;;1.67;100.00
43683;BME280;29285;52.128;21.060;2024-03-08T06:34:45;101148.86;;;1.79;100.00
43683;BME280;29285;52.128;21.060;2024-03-08T06:39:46;101151.02;;;1.92;100.00
43683;BME280;29285;52.128;21.060;2024-03-08T06:44:48;101148.46;;;2.10;100.00
43683;BME280;29285;52.128;21.060;2024-03-08T06:49:51;101144.51;;;2.31;100.00
43683;BME280;29285;52.128;21.060;2024-03-08T06:54:53;101142.70;;;2.51;100.00
43683;BME280;29285;52.128;21.060;2024-03-08T06:59:54;101141.99;;;2.61;100.00
43683;BME280;29285;52.128;21.060;2024-03-08T07:04:56;101142.59;;;2.70;100.00
43683;BME280;29285;52.128;21.060;2024-03-08T07:09:57;101143.84;;;2.78;100.00
43683;BME280;29285;52.128;21.060;2024-03-08T07:14:58;101141.20;;;2.82;100.00
43683;BME280;29285;52.128;21.060;2024-03-08T07:20:00;101142.80;;;2.90;100.00
43683;BME280;29285;52.128;21.060;2024-03-08T07:25:08;101138.43;;;3.05;100.00
43683;BME280;29285;52.128;21.060;2024-03-08T07:30:25;101137.16;;;3.22;100.00
43683;BME280;29285;52.128;21.060;2024-03-08T07:35:44;101136.47;;;3.41;100.00
43683;BME280;29285;52.128;21.060;2024-03-08T07:40:46;101133.95;;;3.57;100.00
43683;BME280;29285;52.128;21.060;2024-03-08T07:45:47;101130.98;;;3.69;100.00
43683;BME280;29285;52.128;21.060;2024-03-08T07:50:48;101130.38;;;3.79;100.00
43683;BME280;29285;52.128;21.060;2024-03-08T07:55:50;101125.60;;;3.87;100.00
43683;BME280;29285;52.128;21.060;2024-03-08T08:00:51;101120.18;;;4.05;100.00
43683;BME280;29285;52.128;21.060;2024-03-08T08:05:53;101120.23;;;4.22;100.00
43683;BME280;29285;52.128;21.060;2024-03-08T08:10:54;101113.86;;;4.37;100.00
43683;BME280;29285;52.128;21.060;2024-03-08T08:15:56;101115.58;;;4.53;100.00
43683;BME280;29285;52.128;21.060;2024-03-08T08:20:57;101117.70;;;4.72;100.00
43683;BME280;29285;52.128;21.060;2024-03-08T08:25:59;101112.11;;;4.86;100.00
43683;BME280;29285;52.128;21.060;2024-03-08T08:31:02;101110.13;;;4.98;100.00
43683;BME280;29285;52.128;21.060;2024-03-08T08:36:05;101107.90;;;5.08;100.00
43683;BME280;29285;52.128;21.060;2024-03-08T08:41:06;101104.36;;;5.21;100.00
43683;BME280;29285;52.128;21.060;2024-03-08T08:46:07;101104.37;;;5.32;100.00
43683;BME280;29285;52.128;21.060;2024-03-08T08:51:11;101103.50;;;5.41;100.00
43683;BME280;29285;52.128;21.060;2024-03-08T08:56:13;101098.47;;;5.48;100.00
43683;BME280;29285;52.128;21.060;2024-03-08T09:01:14;101096.00;;;5.55;100.00
43683;BME280;29285;52.128;21.060;2024-03-08T09:06:16;101094.23;;;5.63;100.00
43683;BME280;29285;52.128;21.060;2024-03-08T09:11:17;101090.42;;;5.72;100.00
43683;BME280;29285;52.128;21.060;2024-03-08T09:16:19;101084.36;;;5.80;100.00
43683;BME280;29285;52.128;21.060;2024-03-08T09:21:20;101080.98;;;5.85;100.00
43683;BME280;29285;52.128;21.060;2024-03-08T09:26:21;101076.98;;;5.94;100.00
43683;BME280;29285;52.128;21.060;2024-03-08T09:31:23;101075.58;;;6.04;100.00
43683;BME280;29285;52.128;21.060;2024-03-08T09:36:24;101065.00;;;6.09;100.00
43683;BME280;29285;52.128;21.060;2024-03-08T09:41:26;101065.79;;;6.16;100.00
43683;BME280;29285;52.128;21.060;2024-03-08T09:46:28;101066.41;;;6.24;100.00
43683;BME280;29285;52.128;21.060;2024-03-08T09:51:29;101060.42;;;6.28;100.00
43683;BME280;29285;52.128;21.060;2024-03-08T09:56:32;101057.98;;;6.13;100.00
43683;BME280;29285;52.128;21.060;2024-03-08T10:01:36;101061.73;;;6.22;100.00
43683;BME280;29285;52.128;21.060;2024-03-08T10:06:40;101063.52;;;6.40;100.00
43683;BME280;29285;52.128;21.060;2024-03-08T10:11:41;101056.64;;;6.56;100.00
43683;BME280;29285;52.128;21.060;2024-03-08T10:16:42;101055.56;;;6.68;100.00
43683;BME280;29285;52.128;21.060;2024-03-08T10:21:49;101053.66;;;6.82;100.00
43683;BME280;29285;52.128;21.060;2024-03-08T10:27:01;101048.44;;;6.94;100.00
43683;BME280;29285;52.128;21.060;2024-03-08T10:32:05;101046.97;;;7.02;100.00
43683;BME280;29285;52.128;21.060;2024-03-08T10:37:15;101040.01;;;7.14;100.00
43683;BME280;29285;52.128;21.060;2024-03-08T10:42:22;101037.77;;;7.32;100.00
43683;BME280;29285;52.128;21.060;2024-03-08T10:47:30;101032.91;;;7.51;100.00
43683;BME280;29285;52.128;21.060;2024-03-08T10:52:31;101026.13;;;7.68;100.00
43683;BME280;29285;52.128;21.060;2024-03-08T10:57:32;101015.50;;;7.81;100.00
43683;BME280;29285;52.128;21.060;2024-03-08T11:02:34;101013.88;;;8.01;100.00
43683;BME280;29285;52.128;21.060;2024-03-08T11:07:35;101014.53;;;8.27;100.00
43683;BME280;29285;52.128;21.060;2024-03-08T11:12:37;101012.70;;;8.45;100.00
43683;BME280;29285;52.128;21.060;2024-03-08T11:22:39;101006.13;;;9.13;100.00
43683;BME280;29285;52.128;21.060;2024-03-08T11:27:53;100993.66;;;9.46;100.00
43683;BME280;29285;52.128;21.060;2024-03-08T11:33:11;100989.61;;;9.77;100.00
43683;BME280;29285;52.128;21.060;2024-03-08T11:38:13;100982.08;;;10.02;100.00
43683;BME280;29285;52.128;21.060;2024-03-08T11:43:14;100978.39;;;10.20;100.00
43683;BME280;29285;52.128;21.060;2024-03-08T11:48:15;100975.70;;;10.41;100.00
43683;BME280;29285;52.128;21.060;2024-03-08T11:53:16;100963.64;;;10.61;100.00
43683;BME280;29285;52.128;21.060;2024-03-08T11:58:17;100958.42;;;10.89;100.00
43683;BME280;29285;52.128;21.060;2024-03-08T12:03:18;100952.38;;;11.07;100.00
43683;BME280;29285;52.128;21.060;2024-03-08T12:08:21;100951.54;;;11.03;100.00
43683;BME280;29285;52.128;21.060;2024-03-08T12:13:22;100947.58;;;11.19;100.00
43683;BME280;29285;52.128;21.060;2024-03-08T12:18:27;100938.55;;;11.38;100.00
43683;BME280;29285;52.128;21.060;2024-03-08T12:23:31;100932.05;;;11.63;100.00
43683;BME280;29285;52.128;21.060;2024-03-08T12:28:32;100928.61;;;11.89;100.00
43683;BME280;29285;52.128;21.060;2024-03-08T12:33:33;100927.02;;;12.07;100.00
43683;BME280;29285;52.128;21.060;2024-03-08T12:38:35;100920.08;;;12.07;100.00
43683;BME280;29285;52.128;21.060;2024-03-08T12:43:38;100914.83;;;11.95;100.00
43683;BME280;29285;52.128;21.060;2024-03-08T12:48:39;100908.00;;;11.98;100.00
43683;BME280;29285;52.128;21.060;2024-03-08T12:53:45;100899.40;;;12.19;100.00
43683;BME280;29285;52.128;21.060;2024-03-08T12:58:46;100896.67;;;12.40;100.00
43683;BME280;29285;52.128;21.060;2024-03-08T13:03:47;100889.70;;;12.42;100.00
43683;BME280;29285;52.128;21.060;2024-03-08T13:08:51;100884.05;;;12.58;100.00
43683;BME280;29285;52.128;21.060;2024-03-08T13:13:53;100877.46;;;12.79;100.00
43683;BME280;29285;52.128;21.060;2024-03-08T13:18:54;100869.98;;;12.98;100.00
43683;BME280;29285;52.128;21.060;2024-03-08T13:23:54;100863.86;;;12.90;100.00
43683;BME280;29285;52.128;21.060;2024-03-08T13:28:56;100856.26;;;12.77;100.00
43683;BME280;29285;52.128;21.060;2024-03-08T13:33:57;100852.05;;;12.79;100.00
43683;BME280;29285;52.128;21.060;2024-03-08T13:38:59;100849.61;;;12.98;100.00
43683;BME280;29285;52.128;21.060;2024-03-08T13:44:00;100848.39;;;13.27;100.00
43683;BME280;29285;52.128;21.060;2024-03-08T13:49:05;100841.35;;;13.58;100.00
43683;BME280;29285;52.128;21.060;2024-03-08T13:54:08;100839.13;;;13.82;100.00
43683;BME280;29285;52.128;21.060;2024-03-08T13:59:11;100834.73;;;14.00;100.00
43683;BME280;29285;52.128;21.060;2024-03-08T14:04:12;100827.89;;;14.10;100.00
43683;BME280;29285;52.128;21.060;2024-03-08T14:09:13;100823.56;;;14.38;100.00
43683;BME280;29285;52.128;21.060;2024-03-08T14:14:21;100818.02;;;14.72;100.00
43683;BME280;29285;52.128;21.060;2024-03-08T14:19:23;100817.81;;;15.14;100.00
43683;BME280;29285;52.128;21.060;2024-03-08T14:24:25;100819.77;;;15.57;100.00
43683;BME280;29285;52.128;21.060;2024-03-08T14:29:26;100815.44;;;16.36;100.00
43683;BME280;29285;52.128;21.060;2024-03-08T14:34:30;100807.48;;;18.30;100.00
43683;BME280;29285;52.128;21.060;2024-03-08T14:39:31;100804.74;;;20.46;100.00
43683;BME280;29285;52.128;21.060;2024-03-08T14:44:34;100797.27;;;21.84;100.00
43683;BME280;29285;52.128;21.060;2024-03-08T14:49:35;100790.91;;;22.68;100.00
43683;BME280;29285;52.128;21.060;2024-03-08T14:54:38;100790.36;;;23.18;100.00
43683;BME280;29285;52.128;21.060;2024-03-08T14:59:40;100785.02;;;22.70;100.00
43683;BME280;29285;52.128;21.060;2024-03-08T15:04:41;100779.61;;;20.37;100.00
43683;BME280;29285;52.128;21.060;2024-03-08T15:09:42;100779.88;;;18.19;100.00
43683;BME280;29285;52.128;21.060;2024-03-08T15:14:44;100781.10;;;16.64;100.00
43683;BME280;29285;52.128;21.060;2024-03-08T15:19:45;100778.57;;;15.54;100.00
43683;BME280;29285;52.128;21.060;2024-03-08T15:24:46;100776.27;;;14.65;100.00
43683;BME280;29285;52.128;21.060;2024-03-08T15:29:47;100778.17;;;13.86;100.00
43683;BME280;29285;52.128;21.060;2024-03-08T15:34:52;100777.27;;;13.10;100.00
43683;BME280;29285;52.128;21.060;2024-03-08T15:39:54;100776.98;;;12.60;100.00
43683;BME280;29285;52.128;21.060;2024-03-08T15:44:55;100766.98;;;12.23;100.00
43683;BME280;29285;52.128;21.060;2024-03-08T15:49:57;100773.98;;;11.70;100.00
43683;BME280;29285;52.128;21.060;2024-03-08T15:54:58;100774.34;;;10.96;100.00
43683;BME280;29285;52.128;21.060;2024-03-08T15:59:59;100771.52;;;10.45;100.00
43683;BME280;29285;52.128;21.060;2024-03-08T16:05:00;100770.17;;;10.38;100.00
43683;BME280;29285;52.128;21.060;2024-03-08T16:10:03;100770.17;;;10.37;100.00
43683;BME280;29285;52.128;21.060;2024-03-08T16:15:09;100772.16;;;10.27;100.00
43683;BME280;29285;52.128;21.060;2024-03-08T16:20:11;100774.21;;;10.07;100.00
43683;BME280;29285;52.128;21.060;2024-03-08T16:25:14;100775.23;;;9.84;100.00
43683;BME280;29285;52.128;21.060;2024-03-08T16:30:17;100772.23;;;9.60;100.00
43683;BME280;29285;52.128;21.060;2024-03-08T16:35:18;100773.40;;;9.31;100.00
43683;BME280;29285;52.128;21.060;2024-03-08T16:40:19;100780.07;;;9.05;100.00
43683;BME280;29285;52.128;21.060;2024-03-08T16:45:22;100777.52;;;8.82;100.00
43683;BME280;29285;52.128;21.060;2024-03-08T16:50:23;100778.23;;;8.62;100.00
43683;BME280;29285;52.128;21.060;2024-03-08T16:55:25;100773.73;;;8.39;100.00
43683;BME280;29285;52.128;21.060;2024-03-08T17:00:27;100774.23;;;8.20;100.00
43683;BME280;29285;52.128;21.060;2024-03-08T17:05:31;100773.34;;;7.99;100.00
43683;BME280;29285;52.128;21.060;2024-03-08T17:10:34;100777.27;;;7.79;100.00
43683;BME280;29285;52.128;21.060;2024-03-08T17:15:35;100781.20;;;7.66;100.00
43683;BME280;29285;52.128;21.060;2024-03-08T17:20:38;100778.75;;;7.56;100.00
43683;BME280;29285;52.128;21.060;2024-03-08T17:25:39;100773.38;;;7.47;100.00
43683;BME280;29285;52.128;21.060;2024-03-08T17:30:41;100769.36;;;7.35;100.00
43683;BME280;29285;52.128;21.060;2024-03-08T17:35:45;100771.04;;;7.24;100.00
43683;BME280;29285;52.128;21.060;2024-03-08T17:40:45;100773.92;;;7.16;100.00
43683;BME280;29285;52.128;21.060;2024-03-08T17:45:47;100770.41;;;7.05;100.00
43683;BME280;29285;52.128;21.060;2024-03-08T17:50:48;100775.58;;;7.00;100.00
43683;BME280;29285;52.128;21.060;2024-03-08T17:55:50;100777.26;;;6.94;100.00
43683;BME280;29285;52.128;21.060;2024-03-08T18:00:52;100779.09;;;6.83;100.00
43683;BME280;29285;52.128;21.060;2024-03-08T18:05:54;100780.79;;;6.79;100.00
43683;BME280;29285;52.128;21.060;2024-03-08T18:10:55;100787.48;;;6.75;100.00
43683;BME280;29285;52.128;21.060;2024-03-08T18:15:56;100780.56;;;6.71;100.00
43683;BME280;29285;52.128;21.060;2024-03-08T18:20:57;100774.47;;;6.63;100.00
43683;BME280;29285;52.128;21.060;2024-03-08T18:25:59;100775.48;;;6.59;100.00
43683;BME280;29285;52.128;21.060;2024-03-08T18:31:02;100775.62;;;6.55;100.00
43683;BME280;29285;52.128;21.060;2024-03-08T18:36:03;100774.63;;;6.40;100.00
43683;BME280;29285;52.128;21.060;2024-03-08T18:41:07;100774.40;;;6.32;100.00
43683;BME280;29285;52.128;21.060;2024-03-08T18:46:08;100775.73;;;6.26;100.00
43683;BME280;29285;52.128;21.060;2024-03-08T18:51:09;100775.81;;;6.17;100.00
43683;BME280;29285;52.128;21.060;2024-03-08T18:56:11;100771.77;;;6.08;100.00
43683;BME280;29285;52.128;21.060;2024-03-08T19:01:15;100775.37;;;6.06;100.00
43683;BME280;29285;52.128;21.060;2024-03-08T19:06:19;100771.52;;;6.02;100.00
43683;BME280;29285;52.128;21.060;2024-03-08T19:11:22;100774.89;;;5.96;100.00
43683;BME280;29285;52.128;21.060;2024-03-08T19:16:23;100773.64;;;5.91;100.00
43683;BME280;29285;52.128;21.060;2024-03-08T19:21:24;100772.58;;;5.88;100.00
43683;BME280;29285;52.128;21.060;2024-03-08T19:26:25;100769.10;;;5.85;100.00
43683;BME280;29285;52.128;21.060;2024-03-08T19:31:26;100761.83;;;5.82;100.00
43683;BME280;29285;52.128;21.060;2024-03-08T19:36:27;100765.58;;;5.78;100.00
43683;BME280;29285;52.128;21.060;2024-03-08T19:41:29;100767.04;;;5.70;100.00
43683;BME280;29285;52.128;21.060;2024-03-08T19:46:31;100768.02;;;5.63;100.00
43683;BME280;29285;52.128;21.060;2024-03-08T19:51:41;100766.67;;;5.53;100.00
43683;BME280;29285;52.128;21.060;2024-03-08T19:56:43;100768.23;;;5.38;100.00
43683;BME280;29285;52.128;21.060;2024-03-08T20:01:45;100763.30;;;5.28;100.00
43683;BME280;29285;52.128;21.060;2024-03-08T20:06:46;100759.99;;;5.26;100.00
43683;BME280;29285;52.128;21.060;2024-03-08T20:11:47;100758.91;;;5.23;100.00
43683;BME280;29285;52.128;21.060;2024-03-08T20:16:49;100757.93;;;5.13;100.00
43683;BME280;29285;52.128;21.060;2024-03-08T20:21:52;100755.03;;;5.01;100.00
43683;BME280;29285;52.128;21.060;2024-03-08T20:26:54;100754.42;;;4.94;100.00
43683;BME280;29285;52.128;21.060;2024-03-08T20:31:55;100755.10;;;4.82;100.00
43683;BME280;29285;52.128;21.060;2024-03-08T20:36:56;100756.45;;;4.79;100.00
43683;BME280;29285;52.128;21.060;2024-03-08T20:41:59;100753.09;;;4.73;100.00
43683;BME280;29285;52.128;21.060;2024-03-08T20:47:00;100750.55;;;4.63;100.00
43683;BME280;29285;52.128;21.060;2024-03-08T20:52:01;100752.14;;;4.55;100.00
43683;BME280;29285;52.128;21.060;2024-03-08T20:57:03;100751.52;;;4.49;100.00
43683;BME280;29285;52.128;21.060;2024-03-08T21:02:05;100750.83;;;4.36;100.00
43683;BME280;29285;52.128;21.060;2024-03-08T21:07:06;100743.21;;;4.33;100.00
43683;BME280;29285;52.128;21.060;2024-03-08T21:12:07;100744.80;;;4.35;100.00
43683;BME280;29285;52.128;21.060;2024-03-08T21:17:11;100747.48;;;4.32;100.00
43683;BME280;29285;52.128;21.060;2024-03-08T21:22:12;100748.24;;;4.26;100.00
43683;BME280;29285;52.128;21.060;2024-03-08T21:27:13;100746.71;;;4.17;100.00
43683;BME280;29285;52.128;21.060;2024-03-08T21:32:14;100746.59;;;4.10;100.00
43683;BME280;29285;52.128;21.060;2024-03-08T21:37:16;100741.88;;;4.05;100.00
43683;BME280;29285;52.128;21.060;2024-03-08T21:42:18;100740.46;;;4.03;100.00
43683;BME280;29285;52.128;21.060;2024-03-08T21:47:20;100737.30;;;3.99;100.00
43683;BME280;29285;52.128;21.060;2024-03-08T21:52:22;100735.54;;;3.96;100.00
43683;BME280;29285;52.128;21.060;2024-03-08T21:57:24;100733.34;;;3.88;100.00
43683;BME280;29285;52.128;21.060;2024-03-08T22:02:25;100732.73;;;3.82;100.00
43683;BME280;29285;52.128;21.060;2024-03-08T22:07:27;100731.80;;;3.78;100.00
43683;BME280;29285;52.128;21.060;2024-03-08T22:12:28;100727.11;;;3.75;100.00
43683;BME280;29285;52.128;21.060;2024-03-08T22:17:31;100725.16;;;3.72;100.00
43683;BME280;29285;52.128;21.060;2024-03-08T22:22:32;100723.14;;;3.65;100.00
43683;BME280;29285;52.128;21.060;2024-03-08T22:27:34;100722.98;;;3.75;100.00
43683;BME280;29285;52.128;21.060;2024-03-08T22:32:35;100718.94;;;3.89;100.00
43683;BME280;29285;52.128;21.060;2024-03-08T22:37:36;100718.39;;;3.76;100.00
43683;BME280;29285;52.128;21.060;2024-03-08T22:42:42;100713.90;;;3.66;100.00
43683;BME280;29285;52.128;21.060;2024-03-08T22:47:44;100707.20;;;3.56;100.00
43683;BME280;29285;52.128;21.060;2024-03-08T22:52:46;100704.15;;;3.49;100.00
43683;BME280;29285;52.128;21.060;2024-03-08T22:57:49;100705.39;;;3.43;100.00
43683;BME280;29285;52.128;21.060;2024-03-08T23:02:51;100701.48;;;3.35;100.00
43683;BME280;29285;52.128;21.060;2024-03-08T23:07:52;100704.46;;;3.30;100.00
43683;BME280;29285;52.128;21.060;2024-03-08T23:12:53;100706.27;;;3.26;100.00
43683;BME280;29285;52.128;21.060;2024-03-08T23:17:54;100704.46;;;3.21;100.00
43683;BME280;29285;52.128;21.060;2024-03-08T23:22:58;100703.57;;;3.19;100.00
43683;BME280;29285;52.128;21.060;2024-03-08T23:28:05;100700.05;;;3.15;100.00
43683;BME280;29285;52.128;21.060;2024-03-08T23:33:09;100699.61;;;3.10;100.00
43683;BME280;29285;52.128;21.060;2024-03-08T23:38:10;100701.98;;;3.00;100.00
43683;BME280;29285;52.128;21.060;2024-03-08T23:43:11;100703.08;;;2.95;100.00
43683;BME280;29285;52.128;21.060;2024-03-08T23:48:13;100702.92;;;2.87;100.00
43683;BME280;29285;52.128;21.060;2024-03-08T23:53:15;100703.34;;;2.83;100.00
43683;BME280;29285;52.128;21.060;2024-03-08T23:58:16;100704.19;;;2.83;100.00
